createdAt,value
2022-09-15T00:03:21.781Z,100.00
2022-09-15T00:08:25.736Z,100.00
2022-09-15T00:13:29.146Z,100.00
2022-09-15T00:18:34.110Z,100.00
2022-09-15T00:23:38.414Z,100.00
2022-09-15T00:28:42.918Z,100.00
2022-09-15T00:33:48.743Z,100.00
2022-09-15T00:38:54.984Z,100.00
2022-09-15T00:44:00.846Z,100.00
2022-09-15T00:49:18.117Z,100.00
2022-09-15T00:54:32.230Z,100.00
2022-09-15T00:59:38.114Z,100.00
2022-09-15T01:04:41.739Z,100.00
2022-09-15T01:10:15.208Z,100.00
2022-09-15T01:15:18.731Z,100.00
2022-09-15T01:20:45.036Z,100.00
2022-09-15T01:25:57.328Z,100.00
2022-09-15T01:31:13.122Z,100.00
2022-09-15T01:36:25.403Z,100.00
2022-09-15T01:41:55.983Z,100.00
2022-09-15T01:47:03.271Z,100.00
2022-09-15T01:52:08.381Z,100.00
2022-09-15T01:57:12.567Z,100.00
2022-09-15T02:02:29.826Z,100.00
2022-09-15T02:08:15.870Z,100.00
2022-09-15T02:13:54.351Z,100.00
2022-09-15T02:19:20.530Z,100.00
2022-09-15T02:24:30.870Z,100.00
2022-09-15T02:29:37.402Z,100.00
2022-09-15T02:34:47.182Z,100.00
2022-09-15T02:39:55.098Z,100.00
2022-09-15T02:45:00.321Z,100.00
2022-09-15T02:50:04.524Z,100.00
2022-09-15T02:55:08.198Z,100.00
2022-09-15T03:00:16.747Z,100.00
2022-09-15T03:05:22.668Z,100.00
2022-09-15T03:10:26.551Z,100.00
2022-09-15T03:15:29.692Z,100.00
2022-09-15T03:20:33.509Z,100.00
2022-09-15T03:25:36.955Z,100.00
2022-09-15T03:30:40.828Z,100.00
2022-09-15T03:35:48.096Z,100.00
2022-09-15T03:41:10.856Z,100.00
2022-09-15T03:46:22.737Z,100.00
2022-09-15T03:51:29.210Z,100.00
2022-09-15T03:56:33.180Z,100.00
2022-09-15T04:01:36.360Z,100.00
2022-09-15T04:06:39.683Z,100.00
2022-09-15T04:11:53.857Z,100.00
2022-09-15T04:16:58.105Z,100.00
2022-09-15T04:22:01.304Z,100.00
2022-09-15T04:27:04.720Z,100.00
2022-09-15T04:32:08.708Z,100.00
2022-09-15T04:37:12.538Z,100.00
2022-09-15T04:42:15.786Z,100.00
2022-09-15T04:47:19.735Z,100.00
2022-09-15T04:52:22.903Z,100.00
2022-09-15T04:57:26.164Z,100.00
2022-09-15T05:02:29.532Z,100.00
2022-09-15T05:07:32.866Z,100.00
2022-09-15T05:12:36.042Z,100.00
2022-09-15T05:17:39.537Z,100.00
2022-09-15T05:22:42.976Z,100.00
2022-09-15T05:27:46.142Z,100.00
2022-09-15T05:32:49.343Z,100.00
2022-09-15T05:37:54.765Z,100.00
2022-09-15T05:42:59.556Z,100.00
2022-09-15T05:48:04.389Z,100.00
2022-09-15T05:53:08.885Z,100.00
2022-09-15T05:58:12.538Z,100.00
2022-09-15T06:03:17.188Z,100.00
2022-09-15T06:08:21.047Z,100.00
2022-09-15T06:13:24.426Z,100.00
2022-09-15T06:18:27.802Z,100.00
2022-09-15T06:23:31.109Z,100.00
2022-09-15T06:28:34.304Z,100.00
2022-09-15T06:33:37.574Z,100.00
2022-09-15T06:38:41.971Z,100.00
2022-09-15T06:43:45.981Z,100.00
2022-09-15T06:48:49.479Z,100.00
2022-09-15T06:53:54.007Z,100.00
2022-09-15T06:58:57.213Z,100.00
2022-09-15T07:04:10.527Z,100.00
2022-09-15T07:09:13.964Z,100.00
2022-09-15T07:14:17.589Z,100.00
2022-09-15T07:19:21.427Z,100.00
2022-09-15T07:24:24.814Z,100.00
2022-09-15T07:29:27.963Z,100.00
2022-09-15T07:34:31.288Z,100.00
2022-09-15T07:39:34.450Z,100.00
2022-09-15T07:44:37.702Z,100.00
2022-09-15T07:49:41.230Z,100.00
2022-09-15T07:54:46.274Z,100.00
2022-09-15T07:59:49.525Z,100.00
2022-09-15T08:04:53.397Z,100.00
2022-09-15T08:09:56.585Z,100.00
2022-09-15T08:14:59.758Z,100.00
2022-09-15T08:20:04.009Z,100.00
2022-09-15T08:25:07.403Z,100.00
2022-09-15T08:30:11.548Z,100.00
2022-09-15T08:35:17.003Z,100.00
2022-09-15T08:40:24.705Z,100.00
2022-09-15T08:45:32.819Z,100.00
2022-09-15T08:50:39.916Z,100.00
2022-09-15T08:55:53.596Z,100.00
2022-09-15T09:01:36.795Z,100.00
2022-09-15T09:06:43.338Z,98.07
2022-09-15T09:12:01.945Z,99.04
2022-09-15T09:17:08.257Z,98.63
2022-09-15T09:22:15.820Z,98.21
2022-09-15T09:27:25.618Z,98.71
2022-09-15T09:32:51.668Z,95.76
2022-09-15T09:38:01.339Z,95.96
2022-09-15T09:43:06.189Z,93.94
2022-09-15T09:48:20.608Z,93.45
2022-09-15T09:53:32.351Z,94.60
2022-09-15T09:58:37.583Z,95.07
2022-09-15T10:03:42.126Z,93.71
2022-09-15T10:08:58.721Z,93.08
2022-09-15T10:14:02.280Z,90.22
2022-09-15T10:19:12.733Z,90.61
2022-09-15T10:24:34.925Z,90.74
2022-09-15T10:29:40.466Z,89.23
2022-09-15T10:34:49.125Z,89.25
2022-09-15T10:39:54.812Z,88.24
2022-09-15T10:45:11.323Z,88.85
2022-09-15T10:50:21.585Z,88.49
2022-09-15T10:55:54.859Z,88.09
2022-09-15T11:01:16.885Z,88.00
2022-09-15T11:06:33.264Z,87.85
2022-09-15T11:11:48.423Z,88.46
2022-09-15T11:17:28.402Z,87.88
2022-09-15T11:22:37.681Z,86.29
2022-09-15T11:27:45.357Z,86.98
2022-09-15T11:32:58.949Z,85.82
2022-09-15T11:38:36.296Z,85.32
2022-09-15T11:44:02.300Z,83.79
2022-09-15T11:49:16.295Z,84.23
2022-09-15T11:54:34.429Z,83.60
2022-09-15T11:59:58.803Z,83.05
2022-09-15T12:05:16.239Z,83.47
2022-09-15T12:10:24.887Z,82.25
2022-09-15T12:15:28.387Z,82.20
2022-09-15T12:20:37.894Z,80.93
2022-09-15T12:26:19.407Z,80.71
2022-09-15T12:31:37.597Z,80.88
2022-09-15T12:37:09.088Z,80.67
2022-09-15T12:42:25.519Z,80.57
2022-09-15T12:47:35.545Z,79.95
2022-09-15T12:52:51.814Z,79.08
2022-09-15T12:58:02.911Z,79.35
2022-09-15T13:03:28.666Z,79.26
2022-09-15T13:08:31.924Z,79.59
2022-09-15T13:13:56.262Z,79.54
2022-09-15T13:19:30.054Z,79.80
2022-09-15T13:25:01.389Z,79.19
2022-09-15T13:30:43.453Z,79.32
2022-09-15T13:35:52.819Z,78.71
2022-09-15T13:41:24.020Z,78.39
2022-09-15T13:46:49.367Z,77.71
2022-09-15T13:52:22.711Z,77.41
2022-09-15T14:02:52.914Z,76.13
2022-09-15T14:08:04.441Z,76.79
2022-09-15T14:13:07.816Z,76.92
2022-09-15T14:18:20.296Z,77.71
2022-09-15T14:23:26.677Z,78.18
2022-09-15T14:28:32.818Z,77.98
2022-09-15T14:33:42.522Z,78.21
2022-09-15T14:39:17.192Z,78.59
2022-09-15T14:50:20.498Z,78.69
2022-09-15T14:55:35.709Z,78.23
2022-09-15T15:00:53.985Z,78.13
2022-09-15T15:06:29.563Z,77.19
2022-09-15T15:11:42.315Z,77.05
2022-09-15T15:17:27.760Z,76.60
2022-09-15T15:22:38.797Z,76.79
2022-09-15T15:27:57.354Z,77.13
2022-09-15T15:33:15.110Z,76.97
2022-09-15T15:38:28.027Z,77.28
2022-09-15T15:43:39.036Z,76.65
2022-09-15T15:48:42.506Z,76.13
2022-09-15T15:53:46.021Z,76.17
2022-09-15T15:58:49.143Z,76.52
2022-09-15T16:04:03.365Z,76.79
2022-09-15T16:09:07.253Z,77.39
2022-09-15T16:14:14.889Z,77.47
2022-09-15T16:19:25.035Z,77.71
2022-09-15T16:24:29.430Z,78.00
2022-09-15T16:29:36.447Z,78.34
2022-09-15T16:34:40.114Z,78.72
2022-09-15T16:39:48.820Z,79.10
2022-09-15T16:45:02.879Z,79.54
2022-09-15T16:50:07.582Z,79.86
2022-09-15T16:55:19.404Z,80.17
2022-09-15T17:00:25.440Z,79.96
2022-09-15T17:05:39.959Z,79.68
2022-09-15T17:10:55.359Z,79.58
2022-09-15T17:16:03.046Z,79.65
2022-09-15T17:21:13.593Z,79.99
2022-09-15T17:26:27.628Z,80.53
2022-09-15T17:31:39.174Z,81.05
2022-09-15T17:36:42.680Z,81.40
2022-09-15T17:41:49.683Z,81.87
2022-09-15T17:46:53.627Z,82.17
2022-09-15T17:51:57.025Z,82.48
2022-09-15T17:57:00.460Z,82.66
2022-09-15T18:02:04.486Z,82.83
2022-09-15T18:07:20.660Z,83.19
2022-09-15T18:12:28.865Z,83.55
2022-09-15T18:17:32.789Z,84.02
2022-09-15T18:22:45.818Z,84.29
2022-09-15T18:28:02.264Z,84.65
2022-09-15T18:33:06.019Z,84.76
2022-09-15T18:38:15.519Z,85.11
2022-09-15T18:43:28.916Z,85.41
2022-09-15T18:48:38.146Z,85.63
2022-09-15T18:53:54.242Z,85.83
2022-09-15T18:59:09.922Z,85.83
2022-09-15T19:04:19.995Z,86.10
2022-09-15T19:09:30.572Z,86.31
2022-09-15T19:14:49.631Z,86.57
2022-09-15T19:20:35.935Z,86.88
2022-09-15T19:25:50.882Z,87.01
2022-09-15T19:31:00.039Z,87.24
2022-09-15T19:36:27.550Z,87.43
2022-09-15T19:41:39.089Z,87.54
2022-09-15T19:46:46.346Z,87.87
2022-09-15T19:51:55.618Z,88.09
2022-09-15T19:57:13.860Z,88.63
2022-09-15T20:02:23.583Z,88.98
2022-09-15T20:07:28.130Z,89.37
2022-09-15T20:12:35.326Z,89.78
2022-09-15T20:17:49.274Z,90.04
2022-09-15T20:22:54.583Z,90.34
2022-09-15T20:28:09.147Z,90.58
2022-09-15T20:33:28.528Z,90.88
2022-09-15T20:38:40.998Z,91.31
2022-09-15T20:43:55.319Z,91.47
2022-09-15T20:49:21.959Z,91.81
2022-09-15T20:54:26.086Z,91.99
2022-09-15T20:59:36.309Z,92.09
2022-09-15T21:04:58.719Z,92.15
2022-09-15T21:10:05.808Z,92.24
2022-09-15T21:15:09.720Z,92.31
2022-09-15T21:20:13.956Z,92.43
2022-09-15T21:25:20.366Z,92.34
2022-09-15T21:30:24.040Z,92.31
2022-09-15T21:35:27.447Z,92.65
2022-09-15T21:40:33.141Z,92.64
2022-09-15T21:45:42.679Z,93.01
2022-09-15T21:50:51.160Z,93.16
2022-09-15T21:55:55.127Z,93.44
2022-09-15T22:00:58.478Z,93.49
2022-09-15T22:06:02.157Z,93.74
2022-09-15T22:11:07.477Z,93.98
2022-09-15T22:16:19.217Z,94.22
2022-09-15T22:21:26.814Z,94.26
2022-09-15T22:26:32.515Z,94.21
2022-09-15T22:31:37.614Z,94.49
2022-09-15T22:36:42.053Z,94.67
2022-09-15T22:41:45.807Z,95.08
2022-09-15T22:46:58.204Z,95.34
2022-09-15T22:52:03.284Z,95.60
2022-09-15T22:57:07.480Z,95.52
2022-09-15T23:02:11.237Z,95.43
2022-09-15T23:07:15.121Z,95.75
2022-09-15T23:12:25.195Z,95.78
2022-09-15T23:17:29.895Z,95.68
2022-09-15T23:22:33.146Z,95.66
2022-09-15T23:27:37.246Z,95.59
2022-09-15T23:32:43.066Z,95.47
2022-09-15T23:37:48.083Z,95.43
2022-09-15T23:42:53.440Z,95.39
2022-09-15T23:47:56.743Z,95.51
2022-09-15T23:53:00.172Z,95.40
2022-09-15T23:58:05.142Z,95.25
